Time;durP1;ratioP1;P1;durP2;ratioP2;P2;SDS_P1;SDS_P2;PMS_P1;PMS_P2;Temp;Humidity;BMP_temperature;BMP_pressure;BME280_temperature;BME280_humidity;BME280_pressure;Samples;Min_cycle;Max_cycle;Signal;HPM_P1;HPM_P2
2023/03/04 00:02:09;;;;;;;;;1.75;1.75;;;;;;;;5013281;28;8798;-70
2023/03/04 00:04:34;;;;;;;;;0.00;0.00;;;;;;;;5013304;28;8943;-70
2023/03/04 00:07:00;;;;;;;;;1.00;0.75;;;;;;;;5013419;28;8790;-70
2023/03/04 00:09:25;;;;;;;;;1.00;1.00;;;;;;;;5012008;28;8814;-70
2023/03/04 00:11:50;;;;;;;;;4.00;1.50;;;;;;;;5013255;28;8821;-70
2023/03/04 00:14:16;;;;;;;;;4.25;2.00;;;;;;;;5013222;28;8786;-70
2023/03/04 00:16:41;;;;;;;;;5.75;5.75;;;;;;;;5011842;28;8834;-71
2023/03/04 00:19:06;;;;;;;;;2.00;2.00;;;;;;;;5011861;28;8814;-71
2023/03/04 00:21:31;;;;;;;;;4.25;2.00;;;;;;;;5013026;28;9011;-71
2023/03/04 00:23:57;;;;;;;;;6.00;4.00;;;;;;;;5011749;28;8904;-71
2023/03/04 00:26:22;;;;;;;;;5.00;4.00;;;;;;;;5013130;28;8798;-71
2023/03/04 00:28:47;;;;;;;;;5.25;3.50;;;;;;;;5013001;28;8802;-71
2023/03/04 00:31:12;;;;;;;;;4.75;4.75;;;;;;;;5012784;28;9591;-72
2023/03/04 00:33:42;;;;;;;;;5.75;5.00;;;;;;;;5012863;28;8802;-72
2023/03/04 00:36:07;;;;;;;;;4.00;4.00;;;;;;;;5011717;28;8828;-72
2023/03/04 00:38:32;;;;;;;;;4.00;4.00;;;;;;;;5011474;28;11509;-72
2023/03/04 00:40:58;;;;;;;;;4.25;3.00;;;;;;;;5012771;28;8782;-73
2023/03/04 00:43:23;;;;;;;;;7.00;5.00;;;;;;;;5012601;28;8850;-72
2023/03/04 00:45:48;;;;;;;;;8.50;4.25;;;;;;;;5012599;28;8814;-73
2023/03/04 00:48:15;;;;;;;;;5.00;5.00;;;;;;;;5011366;28;8837;-72
2023/03/04 00:50:40;;;;;;;;;4.50;2.00;;;;;;;;5012878;28;8798;-73
2023/03/04 00:53:06;;;;;;;;;5.00;4.00;;;;;;;;5012517;28;11515;-72
2023/03/04 00:55:31;;;;;;;;;6.50;4.25;;;;;;;;5012540;28;8826;-72
2023/03/04 00:57:56;;;;;;;;;5.50;5.00;;;;;;;;5012442;28;8803;-72
2023/03/04 01:00:22;;;;;;;;;5.00;4.00;;;;;;;;5012223;28;8806;-71
2023/03/04 01:02:47;;;;;;;;;5.00;4.00;;;;;;;;5012487;28;8814;-71
2023/03/04 01:05:13;;;;;;;;;4.75;4.75;;;;;;;;5012268;28;8832;-71
2023/03/04 01:07:38;;;;;;;;;5.00;2.25;;;;;;;;5012299;28;8790;-71
2023/03/04 01:10:04;;;;;;;;;5.75;4.50;;;;;;;;5012296;28;8783;-71
2023/03/04 01:12:29;;;;;;;;;4.75;4.25;;;;;;;;5012238;28;8798;-71
2023/03/04 01:14:55;;;;;;;;;4.00;4.00;;;;;;;;5010694;28;11483;-71
2023/03/04 01:17:20;;;;;;;;;8.25;5.00;;;;;;;;5012139;28;8786;-71
2023/03/04 01:19:45;;;;;;;;;6.75;3.50;;;;;;;;5012262;28;8867;-71
2023/03/04 01:22:12;;;;;;;;;4.25;3.50;;;;;;;;5043628;28;8821;-71
2023/03/04 01:24:37;;;;;;;;;5.50;4.75;;;;;;;;5012139;28;8798;-71
2023/03/04 01:27:03;;;;;;;;;4.75;4.75;;;;;;;;5011844;28;11471;-72
2023/03/04 01:29:28;;;;;;;;;8.00;6.00;;;;;;;;5011770;28;8832;-72
2023/03/04 01:31:53;;;;;;;;;6.25;4.00;;;;;;;;5010586;28;8810;-72
2023/03/04 01:34:18;;;;;;;;;2.00;2.00;;;;;;;;5011871;28;8832;-72
2023/03/04 01:36:43;;;;;;;;;6.50;5.50;;;;;;;;5011832;28;8855;-71
2023/03/04 01:39:09;;;;;;;;;7.75;5.50;;;;;;;;5011899;28;8871;-71
2023/03/04 01:41:34;;;;;;;;;7.00;6.00;;;;;;;;5011741;28;8805;-71
2023/03/04 01:44:01;;;;;;;;;5.00;4.00;;;;;;;;5010118;28;8846;-71
2023/03/04 01:46:26;;;;;;;;;9.25;5.25;;;;;;;;5011643;28;8802;-71
2023/03/04 01:48:52;;;;;;;;;8.00;5.00;;;;;;;;5011473;28;11534;-71
2023/03/04 01:51:18;;;;;;;;;5.00;5.00;;;;;;;;5011557;28;8802;-71
2023/03/04 01:53:45;;;;;;;;;6.00;4.50;;;;;;;;5011096;28;8965;-71
2023/03/04 01:56:10;;;;;;;;;5.50;4.25;;;;;;;;5011450;28;11488;-70
2023/03/04 01:58:36;;;;;;;;;5.00;4.00;;;;;;;;5011167;28;11526;-71
2023/03/04 02:01:01;;;;;;;;;5.00;5.00;;;;;;;;5011220;28;8843;-71
2023/03/04 02:03:26;;;;;;;;;5.75;4.25;;;;;;;;5011144;28;8822;-71
2023/03/04 02:05:52;;;;;;;;;5.00;5.00;;;;;;;;5011193;28;9530;-71
2023/03/04 02:08:20;;;;;;;;;5.50;5.00;;;;;;;;5009942;28;8822;-71
2023/03/04 02:10:46;;;;;;;;;5.00;4.00;;;;;;;;5011277;28;8902;-70
2023/03/04 02:13:12;;;;;;;;;4.50;4.00;;;;;;;;5009719;28;12478;-71
2023/03/04 02:15:37;;;;;;;;;1.50;1.50;;;;;;;;5011275;28;8791;-71
2023/03/04 02:18:06;;;;;;;;;3.75;2.00;;;;;;;;5009678;28;11599;-71
2023/03/04 02:20:52;;;;;;;;;8.00;4.50;;;;;;;;5011084;28;8822;-71
2023/03/04 02:23:22;;;;;;;;;3.75;3.50;;;;;;;;4989837;28;11521;-71
2023/03/04 02:26:06;;;;;;;;;3.50;3.50;;;;;;;;5009810;28;11480;-71
2023/03/04 02:28:31;;;;;;;;;6.00;4.50;;;;;;;;5010791;28;11481;-71
2023/03/04 02:30:57;;;;;;;;;2.00;2.00;;;;;;;;5010693;28;11500;-71
2023/03/04 02:33:22;;;;;;;;;5.50;4.00;;;;;;;;5009732;28;8811;-71
2023/03/04 02:35:47;;;;;;;;;2.00;2.00;;;;;;;;5011032;28;8807;-71
2023/03/04 02:38:13;;;;;;;;;5.00;3.00;;;;;;;;5011230;28;8794;-72
2023/03/04 02:40:40;;;;;;;;;4.75;4.00;;;;;;;;5009714;28;8814;-71
2023/03/04 02:43:05;;;;;;;;;13.75;12.50;;;;;;;;5009566;28;9584;-72
2023/03/04 02:45:37;;;;;;;;;13.75;12.00;;;;;;;;5010779;28;11550;-72
2023/03/04 02:48:03;;;;;;;;;8.25;8.25;;;;;;;;5010859;28;8810;-72
2023/03/04 02:50:30;;;;;;;;;4.00;4.00;;;;;;;;5010582;28;11497;-72
2023/03/04 02:52:55;;;;;;;;;16.00;10.25;;;;;;;;5010556;28;8814;-72
2023/03/04 02:55:21;;;;;;;;;4.50;4.00;;;;;;;;5010576;28;11567;-72
2023/03/04 02:57:46;;;;;;;;;2.00;2.00;;;;;;;;5010657;28;8802;-72
2023/03/04 03:00:11;;;;;;;;;2.00;2.00;;;;;;;;5010645;28;8896;-72
2023/03/04 03:02:37;;;;;;;;;4.00;2.00;;;;;;;;5010473;28;8911;-72
2023/03/04 03:05:02;;;;;;;;;1.00;1.00;;;;;;;;5012649;28;8806;-72
2023/03/04 03:07:27;;;;;;;;;3.50;3.50;;;;;;;;5014441;28;8821;-72
2023/03/04 03:09:53;;;;;;;;;4.00;4.00;;;;;;;;5014396;28;8899;-72
2023/03/04 03:12:18;;;;;;;;;2.00;2.00;;;;;;;;5014319;28;8802;-72
2023/03/04 03:14:43;;;;;;;;;4.00;2.50;;;;;;;;5014443;28;8790;-72
2023/03/04 03:17:09;;;;;;;;;2.75;2.00;;;;;;;;5014379;28;8790;-72
2023/03/04 03:19:34;;;;;;;;;2.50;2.50;;;;;;;;5014374;28;8821;-72
2023/03/04 03:21:59;;;;;;;;;7.00;4.75;;;;;;;;5014216;28;8877;-72
2023/03/04 07:20:30;;;;;;;;;7.67;7.00;;;;;;;;5125940;27;13390;-73
2023/03/04 07:22:55;;;;;;;;;9.67;9.00;;;;;;;;5129010;27;8793;-73
2023/03/04 07:25:20;;;;;;;;;10.33;7.67;;;;;;;;5127396;27;8928;-72
2023/03/04 07:27:45;;;;;;;;;10.67;9.00;;;;;;;;5126581;27;9523;-70
2023/03/04 07:30:11;;;;;;;;;5.33;5.33;;;;;;;;5080306;27;9926;-71
2023/03/04 07:32:36;;;;;;;;;9.67;9.67;;;;;;;;5067247;28;8818;-71
2023/03/04 07:35:02;;;;;;;;;9.33;7.67;;;;;;;;5065569;28;10779;-71
2023/03/04 07:37:28;;;;;;;;;10.25;9.75;;;;;;;;5065091;28;8794;-71
2023/03/04 07:39:53;;;;;;;;;7.00;6.25;;;;;;;;5067253;28;11492;-71
2023/03/04 07:42:18;;;;;;;;;8.50;7.25;;;;;;;;5067296;28;8814;-71
2023/03/04 07:44:43;;;;;;;;;10.50;7.25;;;;;;;;5066970;28;8817;-71
2023/03/04 07:47:09;;;;;;;;;8.50;6.25;;;;;;;;5067081;28;8825;-71
2023/03/04 07:49:34;;;;;;;;;10.25;6.50;;;;;;;;5064842;28;8905;-71
2023/03/04 07:52:02;;;;;;;;;5.00;4.00;;;;;;;;5067060;28;8967;-71
2023/03/04 07:54:27;;;;;;;;;9.75;6.50;;;;;;;;5066908;28;8786;-70
2023/03/04 07:56:53;;;;;;;;;7.50;4.25;;;;;;;;5066910;28;11583;-72
2023/03/04 07:59:18;;;;;;;;;7.50;4.00;;;;;;;;5064652;28;8834;-71
2023/03/04 08:01:43;;;;;;;;;6.50;4.50;;;;;;;;5065377;28;8821;-71
2023/03/04 08:04:08;;;;;;;;;4.00;2.75;;;;;;;;5066830;28;8786;-72
2023/03/04 08:06:34;;;;;;;;;5.00;3.50;;;;;;;;5065444;28;8806;-71
2023/03/04 08:09:00;;;;;;;;;5.00;4.50;;;;;;;;5063306;28;8853;-72
2023/03/04 08:11:27;;;;;;;;;2.00;2.00;;;;;;;;5064968;28;8826;-72
2023/03/04 08:13:55;;;;;;;;;6.00;4.25;;;;;;;;5066420;28;12545;-72
2023/03/04 08:16:21;;;;;;;;;18.25;12.50;;;;;;;;5066588;28;11487;-70
2023/03/04 08:18:47;;;;;;;;;12.25;5.50;;;;;;;;5063709;28;11606;-71
2023/03/04 08:21:14;;;;;;;;;2.50;2.50;;;;;;;;5064947;28;11845;-71
2023/03/04 08:23:41;;;;;;;;;4.50;4.50;;;;;;;;5060216;28;10272;-71
2023/03/04 08:26:10;;;;;;;;;7.00;6.00;;;;;;;;5066331;28;9961;-71
2023/03/04 08:28:36;;;;;;;;;8.67;4.00;;;;;;;;5063993;28;9392;-72
2023/03/04 08:31:01;;;;;;;;;5.00;5.00;;;;;;;;5057195;28;8902;-72
2023/03/04 08:33:27;;;;;;;;;12.33;11.33;;;;;;;;5052741;28;8805;-72
2023/03/04 08:35:52;;;;;;;;;15.00;13.33;;;;;;;;5052829;28;8817;-72
2023/03/04 08:38:17;;;;;;;;;14.00;12.67;;;;;;;;5050425;28;8837;-72
2023/03/04 08:40:42;;;;;;;;;47.67;37.67;;;;;;;;5052624;28;8915;-71
2023/03/04 08:43:08;;;;;;;;;7.67;6.00;;;;;;;;5052647;28;9590;-70
2023/03/04 08:45:33;;;;;;;;;6.67;5.00;;;;;;;;5052754;28;8903;-70
2023/03/04 08:47:58;;;;;;;;;8.33;4.00;;;;;;;;5052048;28;9613;-71
2023/03/04 08:50:26;;;;;;;;;7.67;4.67;;;;;;;;5052494;28;8952;-70
2023/03/04 08:52:51;;;;;;;;;5.75;5.75;;;;;;;;5052932;28;8931;-71
2023/03/04 08:55:16;;;;;;;;;7.33;5.33;;;;;;;;5052306;28;8935;-70
2023/03/04 08:57:42;;;;;;;;;7.00;6.00;;;;;;;;5052538;28;8828;-74
2023/03/04 09:00:07;;;;;;;;;2.00;2.00;;;;;;;;5052547;28;8793;-71
2023/03/04 09:02:32;;;;;;;;;3.00;2.00;;;;;;;;5052177;28;8894;-71
2023/03/04 09:04:58;;;;;;;;;4.00;4.00;;;;;;;;5052361;28;8832;-72
2023/03/04 09:07:23;;;;;;;;;4.33;4.00;;;;;;;;5052352;28;8793;-71
2023/03/04 09:09:48;;;;;;;;;4.00;3.00;;;;;;;;5052478;28;8832;-72
2023/03/04 09:12:13;;;;;;;;;4.67;4.67;;;;;;;;5051806;28;8781;-75
2023/03/04 09:14:39;;;;;;;;;5.00;5.00;;;;;;;;5052401;28;8781;-79
2023/03/04 09:17:04;;;;;;;;;6.67;4.67;;;;;;;;5052377;28;8824;-79
2023/03/04 09:19:30;;;;;;;;;6.00;4.00;;;;;;;;5052267;28;8845;-73
2023/03/04 09:21:56;;;;;;;;;5.00;5.00;;;;;;;;5052814;28;8886;-81
2023/03/04 09:24:21;;;;;;;;;7.80;5.00;;;;;;;;5052354;28;8831;-73
2023/03/04 09:26:50;;;;;;;;;6.00;4.75;;;;;;;;5052154;28;8798;-74
2023/03/04 09:29:15;;;;;;;;;4.60;4.60;;;;;;;;5051852;28;8825;-73
2023/03/04 09:31:41;;;;;;;;;6.50;6.00;;;;;;;;5051343;28;8789;-74
2023/03/04 09:34:06;;;;;;;;;5.50;4.00;;;;;;;;5050961;28;8805;-72
2023/03/04 09:36:31;;;;;;;;;13.00;12.00;;;;;;;;5050956;28;8801;-72
2023/03/04 09:39:00;;;;;;;;;8.00;6.25;;;;;;;;5065997;28;8821;-74
2023/03/04 09:41:33;;;;;;;;;9.20;6.60;;;;;;;;5050096;28;8805;-73
2023/03/04 09:43:58;;;;;;;;;7.00;4.20;;;;;;;;5050236;28;8824;-73
2023/03/04 09:46:35;;;;;;;;;6.75;5.75;;;;;;;;5050483;28;8805;-74
2023/03/04 09:49:00;;;;;;;;;5.40;4.80;;;;;;;;5050713;28;8860;-75
2023/03/04 09:51:34;;;;;;;;;5.50;5.00;;;;;;;;5051749;28;8825;-73
2023/03/04 09:54:07;;;;;;;;;4.80;4.80;;;;;;;;5049305;28;8790;-76
2023/03/04 09:56:41;;;;;;;;;3.40;3.40;;;;;;;;5050566;28;8935;-77
2023/03/04 09:59:09;;;;;;;;;4.40;4.40;;;;;;;;5051873;28;8797;-77
2023/03/04 10:01:49;;;;;;;;;4.20;4.00;;;;;;;;5051631;28;8792;-78
2023/03/04 10:04:44;;;;;;;;;3.40;3.40;;;;;;;;5061755;28;9750;-78
2023/03/04 10:07:14;;;;;;;;;4.40;3.80;;;;;;;;5029028;28;8820;-77
2023/03/04 10:09:48;;;;;;;;;5.00;4.20;;;;;;;;5029253;28;8850;-76
2023/03/04 10:12:16;;;;;;;;;3.80;3.60;;;;;;;;5028972;28;8931;-76
2023/03/04 10:14:49;;;;;;;;;3.80;3.00;;;;;;;;5026777;28;8831;-77
2023/03/04 10:17:15;;;;;;;;;2.20;2.00;;;;;;;;5012211;28;8800;-75
2023/03/04 10:19:43;;;;;;;;;4.00;3.75;;;;;;;;5028574;28;8901;-78
2023/03/04 10:22:18;;;;;;;;;7.20;6.00;;;;;;;;5012362;28;9010;-80
2023/03/04 10:24:46;;;;;;;;;5.00;5.00;;;;;;;;5026740;28;8902;-78
2023/03/04 10:27:14;;;;;;;;;4.20;4.20;;;;;;;;5011905;28;8812;-78
2023/03/04 10:29:39;;;;;;;;;4.40;4.00;;;;;;;;5011757;28;8820;-81
2023/03/04 10:32:05;;;;;;;;;6.25;3.00;;;;;;;;5028115;28;9535;-76
2023/03/04 10:34:30;;;;;;;;;4.75;4.25;;;;;;;;5026192;28;8824;-74
2023/03/04 10:36:58;;;;;;;;;4.50;3.50;;;;;;;;5028632;28;8796;-73
2023/03/04 10:39:27;;;;;;;;;6.00;4.40;;;;;;;;5011969;28;8931;-72
2023/03/04 10:41:57;;;;;;;;;5.00;4.20;;;;;;;;5028503;28;8807;-74
2023/03/04 10:44:22;;;;;;;;;6.20;5.00;;;;;;;;5045810;28;8825;-74
2023/03/04 10:46:48;;;;;;;;;2.75;2.75;;;;;;;;5050687;28;8786;-73
2023/03/04 10:49:15;;;;;;;;;3.00;3.00;;;;;;;;5048968;28;8833;-73
2023/03/04 10:51:48;;;;;;;;;3.20;3.20;;;;;;;;5050620;28;8793;-73
2023/03/04 10:54:21;;;;;;;;;3.00;3.00;;;;;;;;5049047;28;8832;-73
2023/03/04 10:56:55;;;;;;;;;3.20;3.20;;;;;;;;5049407;28;8805;-73
2023/03/04 10:59:33;;;;;;;;;6.80;5.00;;;;;;;;5050326;28;8946;-73
2023/03/04 11:01:59;;;;;;;;;5.20;4.40;;;;;;;;5050494;28;8773;-73
2023/03/04 11:04:26;;;;;;;;;4.00;3.60;;;;;;;;5047265;28;8833;-74
2023/03/04 11:06:52;;;;;;;;;5.00;5.00;;;;;;;;5050489;28;8785;-74
2023/03/04 11:09:22;;;;;;;;;5.00;5.00;;;;;;;;5049864;28;8836;-76
2023/03/04 11:11:48;;;;;;;;;4.00;3.00;;;;;;;;5050437;28;8866;-78
2023/03/04 11:14:27;;;;;;;;;3.60;3.00;;;;;;;;5050327;28;8770;-75
2023/03/04 11:16:57;;;;;;;;;2.20;2.00;;;;;;;;5050467;28;8793;-76
2023/03/04 11:19:23;;;;;;;;;4.00;4.00;;;;;;;;5050134;28;8821;-76
2023/03/04 11:21:50;;;;;;;;;13.50;12.00;;;;;;;;5065805;28;8927;-76
2023/03/04 11:24:24;;;;;;;;;7.00;6.75;;;;;;;;5050166;28;8840;-77
2023/03/04 11:26:53;;;;;;;;;7.25;3.25;;;;;;;;5050496;28;8812;-76
2023/03/04 11:29:22;;;;;;;;;5.75;4.75;;;;;;;;5050144;28;8917;-77
2023/03/04 11:31:59;;;;;;;;;6.50;4.50;;;;;;;;5050370;28;8782;-77
2023/03/04 11:34:32;;;;;;;;;3.25;3.25;;;;;;;;5050198;28;8781;-74
2023/03/04 11:37:02;;;;;;;;;2.25;2.25;;;;;;;;5050394;28;8806;-74
2023/03/04 11:39:30;;;;;;;;;7.00;3.50;;;;;;;;5050294;28;8837;-73
2023/03/04 11:42:01;;;;;;;;;4.75;2.00;;;;;;;;5049680;28;8910;-75
2023/03/04 11:44:26;;;;;;;;;7.50;3.00;;;;;;;;5049924;28;8847;-74
2023/03/04 11:47:06;;;;;;;;;3.67;2.67;;;;;;;;5050281;28;8801;-76
2023/03/04 11:49:50;;;;;;;;;42.25;36.00;;;;;;;;5049881;28;8825;-76
2023/03/04 11:52:33;;;;;;;;;9.00;7.00;;;;;;;;5050183;28;10686;-75
2023/03/04 11:54:58;;;;;;;;;6.00;3.00;;;;;;;;5043815;28;9790;-74
2023/03/04 11:57:42;;;;;;;;;3.67;3.67;;;;;;;;5034624;28;9058;-75
2023/03/04 12:00:16;;;;;;;;;3.00;3.00;;;;;;;;5031670;28;8906;-79
2023/03/04 12:02:47;;;;;;;;;4.00;3.00;;;;;;;;5045450;28;9350;-74
2023/03/04 12:05:15;;;;;;;;;6.00;6.00;;;;;;;;5046709;28;9266;-75
2023/03/04 12:08:02;;;;;;;;;6.00;3.00;;;;;;;;5049363;28;9295;-74
2023/03/04 12:10:46;;;;;;;;;7.00;4.00;;;;;;;;5042171;28;9297;-74
2023/03/04 12:13:11;;;;;;;;;3.50;3.00;;;;;;;;5043049;28;9529;-74
2023/03/04 12:15:47;;;;;;;;;3.00;3.00;;;;;;;;5040770;28;10158;-74
2023/03/04 12:18:30;;;;;;;;;2.25;2.00;;;;;;;;5041147;28;8793;-74
2023/03/04 12:20:56;;;;;;;;;3.00;3.00;;;;;;;;5043325;28;9542;-74
2023/03/04 12:23:24;;;;;;;;;5.00;3.50;;;;;;;;5041563;28;9717;-75
2023/03/04 12:25:49;;;;;;;;;3.50;3.50;;;;;;;;5041729;28;8812;-75
2023/03/04 12:28:28;;;;;;;;;3.00;3.00;;;;;;;;5041104;28;9896;-75
2023/03/04 12:30:56;;;;;;;;;6.75;2.00;;;;;;;;5041200;28;8813;-75
2023/03/04 12:33:24;;;;;;;;;7.50;3.00;;;;;;;;5040296;28;9769;-75
2023/03/04 12:35:58;;;;;;;;;2.00;2.00;;;;;;;;5040703;28;10300;-76
2023/03/04 12:38:35;;;;;;;;;3.00;3.00;;;;;;;;5037816;28;10055;-74
2023/03/04 12:41:01;;;;;;;;;5.50;2.25;;;;;;;;5033172;28;10158;-75
2023/03/04 12:43:29;;;;;;;;;2.00;2.00;;;;;;;;5032912;28;10840;-72
2023/03/04 12:46:17;;;;;;;;;3.00;3.00;;;;;;;;5033006;28;8792;-75
2023/03/04 12:48:55;;;;;;;;;4.50;3.00;;;;;;;;5045085;28;10487;-76
2023/03/04 12:51:25;;;;;;;;;3.00;3.00;;;;;;;;5052464;28;10311;-77
2023/03/04 12:53:53;;;;;;;;;4.50;3.00;;;;;;;;5053084;28;10544;-76
2023/03/04 12:56:22;;;;;;;;;2.00;2.00;;;;;;;;5052861;28;10621;-75
2023/03/04 12:58:47;;;;;;;;;4.00;4.00;;;;;;;;5051585;28;10516;-75
2023/03/04 13:01:22;;;;;;;;;7.75;3.00;;;;;;;;5051454;28;10624;-75
2023/03/04 13:04:08;;;;;;;;;7.00;3.00;;;;;;;;5052617;28;8820;-74
2023/03/04 13:06:52;;;;;;;;;3.00;3.00;;;;;;;;5052009;28;10563;-76
2023/03/04 13:09:17;;;;;;;;;2.00;2.00;;;;;;;;5052267;28;10713;-75
2023/03/04 13:12:03;;;;;;;;;2.50;2.50;;;;;;;;5052204;28;10874;-75
2023/03/04 13:14:29;;;;;;;;;5.50;3.50;;;;;;;;5053195;28;8824;-75
2023/03/04 13:16:57;;;;;;;;;7.00;3.50;;;;;;;;5044826;28;10810;-76
2023/03/04 13:19:41;;;;;;;;;6.25;5.00;;;;;;;;5034813;28;10999;-77
2023/03/04 13:22:26;;;;;;;;;2.25;2.25;;;;;;;;5032587;28;11141;-76
2023/03/04 13:24:52;;;;;;;;;5.75;3.00;;;;;;;;5032450;28;10636;-76
2023/03/04 13:27:36;;;;;;;;;3.50;3.00;;;;;;;;5050043;28;10971;-77
2023/03/04 13:30:02;;;;;;;;;2.50;2.50;;;;;;;;5051874;28;11483;-76
2023/03/04 13:32:37;;;;;;;;;3.00;3.00;;;;;;;;5051823;28;10930;-75
2023/03/04 13:35:22;;;;;;;;;4.50;2.50;;;;;;;;5052018;28;8816;-75
2023/03/04 13:37:58;;;;;;;;;3.50;3.50;;;;;;;;5051977;28;11499;-76
2023/03/04 13:40:30;;;;;;;;;5.25;5.25;;;;;;;;5051932;28;10900;-72
2023/03/04 13:43:16;;;;;;;;;3.00;3.00;;;;;;;;5051805;28;11084;-75
2023/03/04 13:45:41;;;;;;;;;2.50;1.75;;;;;;;;5051568;28;10939;-75
2023/03/04 13:48:21;;;;;;;;;2.00;2.00;;;;;;;;5051703;28;11142;-76
2023/03/04 13:50:47;;;;;;;;;6.75;5.00;;;;;;;;5052027;28;9523;-72
2023/03/04 13:53:29;;;;;;;;;10.75;7.50;;;;;;;;5051925;28;10992;-76
2023/03/04 13:56:04;;;;;;;;;8.00;8.00;;;;;;;;5051890;28;11143;-74
2023/03/04 13:58:29;;;;;;;;;3.50;3.50;;;;;;;;5051839;28;11469;-74
2023/03/04 14:00:55;;;;;;;;;6.00;3.50;;;;;;;;5051662;28;12122;-74
2023/03/04 14:03:22;;;;;;;;;6.75;5.00;;;;;;;;5066621;28;8882;-74
2023/03/04 14:06:07;;;;;;;;;4.00;3.25;;;;;;;;5051707;28;8804;-74
2023/03/04 14:08:32;;;;;;;;;5.00;2.75;;;;;;;;5066989;28;10956;-75
2023/03/04 14:10:57;;;;;;;;;2.50;2.50;;;;;;;;5051415;28;11070;-75
2023/03/04 14:13:24;;;;;;;;;4.00;4.00;;;;;;;;5048424;28;8933;-75
2023/03/04 14:15:56;;;;;;;;;14.50;13.00;;;;;;;;5037708;28;8812;-71
2023/03/04 14:18:25;;;;;;;;;16.25;15.25;;;;;;;;5040766;28;12254;-72
2023/03/04 14:20:50;;;;;;;;;32.75;30.75;;;;;;;;5051134;28;11557;-72
2023/03/04 14:23:22;;;;;;;;;5.00;4.00;;;;;;;;5051121;28;11528;-72
2023/03/04 14:25:47;;;;;;;;;5.75;5.50;;;;;;;;5051297;28;8800;-74
2023/03/04 14:28:15;;;;;;;;;9.00;9.00;;;;;;;;5062195;28;11418;-73
2023/03/04 14:30:41;;;;;;;;;5.75;4.00;;;;;;;;5045975;28;8865;-73
2023/03/04 14:33:07;;;;;;;;;9.00;6.75;;;;;;;;5036184;28;12249;-75
2023/03/04 14:35:33;;;;;;;;;11.75;9.50;;;;;;;;5031298;28;8780;-77
2023/03/04 14:38:21;;;;;;;;;10.25;9.25;;;;;;;;5040329;28;11482;-78
2023/03/04 14:40:49;;;;;;;;;7.50;5.75;;;;;;;;5040788;28;11524;-77
2023/03/04 14:43:19;;;;;;;;;7.00;6.25;;;;;;;;5041077;28;11424;-73
2023/03/04 14:45:45;;;;;;;;;13.50;13.50;;;;;;;;5038322;28;12184;-72
2023/03/04 14:48:18;;;;;;;;;15.25;12.00;;;;;;;;5039532;28;11502;-72
2023/03/04 14:50:47;;;;;;;;;20.25;14.25;;;;;;;;5038007;28;11609;-72
2023/03/04 14:53:14;;;;;;;;;9.50;9.00;;;;;;;;5039285;28;11493;-73
2023/03/04 14:55:39;;;;;;;;;17.00;12.50;;;;;;;;5053085;28;12307;-74
2023/03/04 14:58:06;;;;;;;;;18.25;14.00;;;;;;;;5050072;28;11470;-73
2023/03/04 15:00:33;;;;;;;;;17.00;16.00;;;;;;;;5045042;28;9039;-72
2023/03/04 15:03:02;;;;;;;;;7.50;7.50;;;;;;;;5033260;28;11520;-71
2023/03/04 15:05:29;;;;;;;;;9.00;9.00;;;;;;;;5055616;28;11460;-71
2023/03/04 15:08:18;;;;;;;;;4.50;3.00;;;;;;;;5038913;28;11544;-71
2023/03/04 15:10:52;;;;;;;;;8.00;6.25;;;;;;;;5033709;28;11541;-72
2023/03/04 15:13:36;;;;;;;;;6.50;6.50;;;;;;;;5045614;28;12222;-72
2023/03/04 15:16:01;;;;;;;;;8.00;6.50;;;;;;;;5042103;28;11603;-80
2023/03/04 15:18:28;;;;;;;;;7.75;5.50;;;;;;;;5049614;28;11548;-76
2023/03/04 15:20:54;;;;;;;;;2.50;2.50;;;;;;;;5050392;28;8874;-84
2023/03/04 15:23:19;;;;;;;;;6.00;6.00;;;;;;;;5050478;28;11377;-79
2023/03/04 15:25:44;;;;;;;;;3.00;3.00;;;;;;;;5050348;28;8835;-76
2023/03/04 15:28:14;;;;;;;;;7.25;6.00;;;;;;;;5050378;28;8898;-75
2023/03/04 15:30:39;;;;;;;;;6.00;6.00;;;;;;;;5037677;28;8843;-75
2023/03/04 15:33:08;;;;;;;;;12.25;6.00;;;;;;;;5030037;28;11526;-74
2023/03/04 15:35:34;;;;;;;;;7.00;7.00;;;;;;;;5048746;28;8816;-74
2023/03/04 15:37:59;;;;;;;;;6.50;6.50;;;;;;;;5050321;28;11581;-74
2023/03/04 15:40:27;;;;;;;;;8.25;4.50;;;;;;;;5033104;28;8847;-71
2023/03/04 15:42:54;;;;;;;;;7.75;6.75;;;;;;;;5034417;28;8796;-72
2023/03/04 15:45:27;;;;;;;;;6.00;6.00;;;;;;;;5034367;28;11422;-71
2023/03/04 15:47:52;;;;;;;;;7.25;7.00;;;;;;;;5039631;28;11537;-75
2023/03/04 15:50:18;;;;;;;;;7.00;7.00;;;;;;;;5053599;28;11525;-75
2023/03/04 15:52:43;;;;;;;;;11.75;6.75;;;;;;;;5053753;28;8781;-75
2023/03/04 15:55:13;;;;;;;;;6.00;6.00;;;;;;;;5069486;28;12344;-75
2023/03/04 15:57:38;;;;;;;;;5.50;4.00;;;;;;;;5069478;28;8801;-74
2023/03/04 16:00:03;;;;;;;;;9.25;6.00;;;;;;;;5053921;28;12136;-74
2023/03/04 16:02:29;;;;;;;;;;;;;;;;;;5056106;28;8785;-71
2023/03/04 16:04:54;;;;;;;;;;;;;;;;;;5055586;28;7533;-72
2023/03/04 16:07:19;;;;;;;;;;;;;;;;;;5055533;28;7517;-71
2023/03/04 16:09:44;;;;;;;;;;;;;;;;;;5055180;28;7547;-73
2023/03/04 16:12:09;;;;;;;;;;;;;;;;;;5055856;28;8062;-72
2023/03/04 16:14:34;;;;;;;;;;;;;;;;;;5055558;28;7528;-72
2023/03/04 16:17:00;;;;;;;;;;;;;;;;;;5055487;28;7525;-72
2023/03/04 16:19:25;;;;;;;;;;;;;;;;;;5055095;28;7987;-72
2023/03/04 16:21:50;;;;;;;;;;;;;;;;;;5072568;22;7980;-72
2023/03/04 16:24:15;;;;;;;;;;;;;;;;;;5034633;28;7964;-72
2023/03/04 16:26:40;;;;;;;;;;;;;;;;;;5034163;28;7557;-73
2023/03/04 16:29:06;;;;;;;;;;;;;;;;;;5034343;28;7533;-73
2023/03/04 16:31:31;;;;;;;;;;;;;;;;;;5034392;28;7525;-72
2023/03/04 16:33:56;;;;;;;;;;;;;;;;;;5034546;28;7551;-72
2023/03/04 16:36:21;;;;;;;;;;;;;;;;;;5034380;28;7659;-71
2023/03/04 16:38:46;;;;;;;;;;;;;;;;;;5035250;28;7571;-72
2023/03/04 16:41:11;;;;;;;;;;;;;;;;;;5034472;28;7542;-72
2023/03/04 16:43:37;;;;;;;;;;;;;;;;;;5034273;28;7533;-72
2023/03/04 16:46:02;;;;;;;;;;;;;;;;;;5033542;28;7607;-70
2023/03/04 16:48:27;;;;;;;;;;;;;;;;;;5033989;28;7529;-77
2023/03/04 16:50:52;;;;;;;;;;;;;;;;;;5033563;28;7568;-72
2023/03/04 16:53:17;;;;;;;;;;;;;;;;;;5032652;28;7631;-72
2023/03/04 16:55:42;;;;;;;;;;;;;;;;;;5033980;28;7549;-72
2023/03/04 16:58:07;;;;;;;;;;;;;;;;;;5033859;28;7537;-73
2023/03/04 17:00:33;;;;;;;;;;;;;;;;;;5030081;28;7533;-74
2023/03/04 17:02:58;;;;;;;;;;;;;;;;;;5033464;28;7540;-72
2023/03/04 17:05:23;;;;;;;;;;;;;;;;;;5034499;28;8803;-73
2023/03/04 17:07:48;;;;;;;;;;;;;;;;;;5033987;28;7968;-74
2023/03/04 17:10:13;;;;;;;;;;;;;;;;;;5034155;28;7653;-77
2023/03/04 17:12:38;;;;;;;;;;;;;;;;;;5033659;28;7536;-71
2023/03/04 17:15:04;;;;;;;;;;;;;;;;;;5048639;28;7587;-75
2023/03/04 17:17:29;;;;;;;;;;;;;;;;;;5033520;28;7973;-73
2023/03/04 17:19:54;;;;;;;;;;;;;;;;;;5032903;28;8064;-73
2023/03/04 17:22:19;;;;;;;;;;;;;;;;;;5033108;28;7541;-75
2023/03/04 17:24:44;;;;;;;;;2.00;2.00;;;;;;;;5031544;28;7521;-75
2023/03/04 17:27:09;;;;;;;;;5.00;3.00;;;;;;;;5025721;28;13457;-74
2023/03/04 17:29:35;;;;;;;;;5.50;3.00;;;;;;;;5026926;28;13649;-73
2023/03/04 17:32:00;;;;;;;;;;;;;;;;;;5033743;28;8819;-74
2023/03/04 17:34:25;;;;;;;;;;;;;;;;;;5032750;28;7533;-75
2023/03/04 17:36:50;;;;;;;;;2.50;2.50;;;;;;;;5028880;28;7529;-74
2023/03/04 17:39:16;;;;;;;;;9.00;6.00;;;;;;;;5016990;28;13514;-74
2023/03/04 17:41:41;;;;;;;;;7.00;7.00;;;;;;;;5008066;28;13501;-73
2023/03/04 17:44:06;;;;;;;;;8.25;7.25;;;;;;;;5007895;28;13657;-73
2023/03/04 17:46:31;;;;;;;;;7.67;7.67;;;;;;;;5007640;28;15050;-74
2023/03/04 17:49:00;;;;;;;;;5.50;5.00;;;;;;;;5036891;28;13502;-75
2023/03/04 17:51:29;;;;;;;;;8.80;7.00;;;;;;;;5022889;28;13559;-75
2023/03/04 17:53:55;;;;;;;;;9.20;7.60;;;;;;;;5020524;28;14185;-74
2023/03/04 17:56:20;;;;;;;;;7.75;6.75;;;;;;;;5014674;28;13562;-73
2023/03/04 17:58:46;;;;;;;;;11.00;11.00;;;;;;;;5014680;28;13480;-74
2023/03/04 18:01:14;;;;;;;;;14.75;9.50;;;;;;;;5019877;28;13580;-78
2023/03/04 18:03:39;;;;;;;;;7.75;6.00;;;;;;;;5033279;28;13517;-75
2023/03/04 18:06:04;;;;;;;;;11.50;10.50;;;;;;;;5035626;28;13537;-77
2023/03/04 18:08:29;;;;;;;;;8.00;8.00;;;;;;;;5040974;28;13551;-77
2023/03/04 18:10:55;;;;;;;;;8.50;8.00;;;;;;;;5032658;28;13553;-76
2023/03/04 18:13:20;;;;;;;;;8.50;8.50;;;;;;;;5022488;28;13500;-78
2023/03/04 18:15:45;;;;;;;;;11.00;8.00;;;;;;;;5009072;28;13567;-77
2023/03/04 18:18:11;;;;;;;;;10.00;6.75;;;;;;;;5015358;28;13484;-76
2023/03/04 18:20:39;;;;;;;;;15.00;14.00;;;;;;;;5028196;28;13531;-80
2023/03/04 18:23:04;;;;;;;;;9.60;8.00;;;;;;;;5026772;28;14454;-79
2023/03/04 18:25:29;;;;;;;;;7.75;7.75;;;;;;;;5027222;28;13625;-79
2023/03/04 18:27:54;;;;;;;;;10.00;10.00;;;;;;;;5026345;28;14168;-77
2023/03/04 18:30:25;;;;;;;;;11.00;8.50;;;;;;;;5021148;28;13687;-80
2023/03/04 18:32:51;;;;;;;;;11.40;11.00;;;;;;;;5027859;28;13667;-80
2023/03/04 18:35:18;;;;;;;;;7.75;7.75;;;;;;;;5025905;28;13531;-80
2023/03/04 18:37:44;;;;;;;;;10.25;8.00;;;;;;;;5027794;28;13633;-78
2023/03/04 18:40:10;;;;;;;;;11.50;10.00;;;;;;;;5027291;28;13537;-78
2023/03/04 18:42:36;;;;;;;;;11.40;10.00;;;;;;;;5027580;28;13498;-78
2023/03/04 18:45:01;;;;;;;;;10.25;8.00;;;;;;;;5027095;28;13625;-76
2023/03/04 18:47:30;;;;;;;;;8.00;8.00;;;;;;;;5026859;28;13551;-76
2023/03/04 18:49:56;;;;;;;;;12.25;11.50;;;;;;;;5026733;28;13554;-80
2023/03/04 18:52:21;;;;;;;;;11.75;10.00;;;;;;;;5025448;28;13628;-75
2023/03/04 18:54:46;;;;;;;;;11.67;8.00;;;;;;;;5026309;28;13600;-79
2023/03/04 18:57:12;;;;;;;;;14.00;12.00;;;;;;;;5027121;28;13509;-77
2023/03/04 18:59:50;;;;;;;;;13.75;11.00;;;;;;;;5025359;28;13544;-76
2023/03/04 19:02:39;;;;;;;;;8.00;8.00;;;;;;;;5026873;28;13591;-77